sensor_id;sensor_type;location;lat;lon;timestamp;pressure;altitude;pressure_sealevel;temperature;humidity
32761;BME280;19126;47.472;7.850;2023-02-22T00:00:13;96504.91;;;1.22;93.13
32761;BME280;19126;47.472;7.850;2023-02-22T00:02:48;96511.25;;;1.18;91.97
32761;BME280;19126;47.472;7.850;2023-02-22T00:05:16;96501.13;;;1.15;92.04
32761;BME280;19126;47.472;7.850;2023-02-22T00:07:46;96506.31;;;1.15;91.33
32761;BME280;19126;47.472;7.850;2023-02-22T00:10:14;96498.19;;;1.08;92.02
32761;BME280;19126;47.472;7.850;2023-02-22T00:12:46;96506.88;;;1.07;92.36
32761;BME280;19126;47.472;7.850;2023-02-22T00:15:15;96497.72;;;1.03;91.71
32761;BME280;19126;47.472;7.850;2023-02-22T00:17:42;96503.72;;;1.04;92.00
32761;BME280;19126;47.472;7.850;2023-02-22T00:20:11;96497.63;;;1.05;91.33
32761;BME280;19126;47.472;7.850;2023-02-22T00:22:41;96496.44;;;1.09;90.41
32761;BME280;19126;47.472;7.850;2023-02-22T00:25:10;96490.56;;;1.07;88.80
32761;BME280;19126;47.472;7.850;2023-02-22T00:27:37;96493.72;;;1.10;88.72
32761;BME280;19126;47.472;7.850;2023-02-22T00:30:09;96485.16;;;1.10;88.91
32761;BME280;19126;47.472;7.850;2023-02-22T00:32:39;96490.31;;;1.10;88.44
32761;BME280;19126;47.472;7.850;2023-02-22T00:35:08;96481.72;;;1.09;87.65
32761;BME280;19126;47.472;7.850;2023-02-22T00:37:35;96482.44;;;1.11;86.06
32761;BME280;19126;47.472;7.850;2023-02-22T00:40:08;96492.69;;;1.01;86.37
32761;BME280;19126;47.472;7.850;2023-02-22T00:42:36;96490.44;;;0.97;86.39
32761;BME280;19126;47.472;7.850;2023-02-22T00:45:04;96487.75;;;0.98;85.99
32761;BME280;19126;47.472;7.850;2023-02-22T00:47:31;96484.91;;;1.01;86.01
32761;BME280;19126;47.472;7.850;2023-02-22T00:49:59;96485.16;;;0.98;85.81
32761;BME280;19126;47.472;7.850;2023-02-22T00:52:26;96487.03;;;0.96;86.50
32761;BME280;19126;47.472;7.850;2023-02-22T00:54:53;96488.06;;;0.94;86.66
32761;BME280;19126;47.472;7.850;2023-02-22T00:57:21;96480.69;;;0.89;86.97
32761;BME280;19126;47.472;7.850;2023-02-22T00:59:50;96479.59;;;0.92;86.96
32761;BME280;19126;47.472;7.850;2023-02-22T01:02:17;96484.78;;;0.92;85.60
32761;BME280;19126;47.472;7.850;2023-02-22T01:04:45;96481.38;;;0.91;84.87
32761;BME280;19126;47.472;7.850;2023-02-22T01:07:12;96475.50;;;0.89;84.56
32761;BME280;19126;47.472;7.850;2023-02-22T01:09:39;96478.19;;;0.87;85.07
32761;BME280;19126;47.472;7.850;2023-02-22T01:12:09;96482.66;;;0.85;85.16
32761;BME280;19126;47.472;7.850;2023-02-22T01:14:36;96488.19;;;0.81;84.42
32761;BME280;19126;47.472;7.850;2023-02-22T01:17:06;96484.19;;;0.77;84.70
32761;BME280;19126;47.472;7.850;2023-02-22T01:19:33;96483.81;;;0.70;84.51
32761;BME280;19126;47.472;7.850;2023-02-22T01:22:00;96478.78;;;0.68;84.76
32761;BME280;19126;47.472;7.850;2023-02-22T01:24:27;96478.19;;;0.65;84.75
32761;BME280;19126;47.472;7.850;2023-02-22T01:26:54;96473.38;;;0.60;84.45
32761;BME280;19126;47.472;7.850;2023-02-22T01:29:21;96475.34;;;0.56;83.78
32761;BME280;19126;47.472;7.850;2023-02-22T01:31:54;96479.00;;;0.54;83.77
32761;BME280;19126;47.472;7.850;2023-02-22T01:34:23;96473.69;;;0.55;82.84
32761;BME280;19126;47.472;7.850;2023-02-22T01:36:51;96475.25;;;0.58;82.36
32761;BME280;19126;47.472;7.850;2023-02-22T01:39:21;96472.44;;;0.61;81.14
32761;BME280;19126;47.472;7.850;2023-02-22T01:41:48;96475.59;;;0.53;82.39
32761;BME280;19126;47.472;7.850;2023-02-22T01:44:20;96470.06;;;0.47;83.53
32761;BME280;19126;47.472;7.850;2023-02-22T01:46:51;96471.94;;;0.45;84.40
32761;BME280;19126;47.472;7.850;2023-02-22T01:49:18;96462.78;;;0.40;84.73
32761;BME280;19126;47.472;7.850;2023-02-22T01:51:48;96470.41;;;0.42;84.27
32761;BME280;19126;47.472;7.850;2023-02-22T01:54:20;96466.38;;;0.38;84.69
32761;BME280;19126;47.472;7.850;2023-02-22T01:56:51;96463.72;;;0.39;85.05
32761;BME280;19126;47.472;7.850;2023-02-22T01:59:20;96458.78;;;0.36;85.11
32761;BME280;19126;47.472;7.850;2023-02-22T02:01:51;96461.13;;;0.39;84.04
32761;BME280;19126;47.472;7.850;2023-02-22T02:04:20;96460.66;;;0.46;81.36
32761;BME280;19126;47.472;7.850;2023-02-22T02:06:51;96462.31;;;0.47;79.46
32761;BME280;19126;47.472;7.850;2023-02-22T02:09:24;96454.88;;;0.42;79.82
32761;BME280;19126;47.472;7.850;2023-02-22T02:11:54;96452.44;;;0.40;80.09
32761;BME280;19126;47.472;7.850;2023-02-22T02:14:28;96449.38;;;0.35;79.50
32761;BME280;19126;47.472;7.850;2023-02-22T02:16:56;96445.72;;;0.38;79.04
32761;BME280;19126;47.472;7.850;2023-02-22T02:19:30;96439.75;;;0.37;79.47
32761;BME280;19126;47.472;7.850;2023-02-22T02:22:37;96443.97;;;0.38;78.83
32761;BME280;19126;47.472;7.850;2023-02-22T02:34:07;96432.94;;;0.36;78.16
32761;BME280;19126;47.472;7.850;2023-02-22T02:36:42;96433.16;;;0.33;77.85
32761;BME280;19126;47.472;7.850;2023-02-22T02:39:15;96431.28;;;0.35;77.86
32761;BME280;19126;47.472;7.850;2023-02-22T02:41:46;96422.94;;;0.32;78.67
32761;BME280;19126;47.472;7.850;2023-02-22T02:44:16;96409.66;;;0.25;78.92
32761;BME280;19126;47.472;7.850;2023-02-22T02:46:49;96415.31;;;0.30;78.45
32761;BME280;19126;47.472;7.850;2023-02-22T02:49:21;96422.22;;;0.29;78.05
32761;BME280;19126;47.472;7.850;2023-02-22T02:51:52;96401.31;;;0.21;78.29
32761;BME280;19126;47.472;7.850;2023-02-22T02:54:21;96414.22;;;0.21;78.46
32761;BME280;19126;47.472;7.850;2023-02-22T02:56:49;96416.09;;;0.19;78.89
32761;BME280;19126;47.472;7.850;2023-02-22T02:59:24;96417.16;;;0.17;78.05
32761;BME280;19126;47.472;7.850;2023-02-22T03:02:15;96408.56;;;0.16;78.31
32761;BME280;19126;47.472;7.850;2023-02-22T03:04:57;96406.00;;;0.16;77.80
32761;BME280;19126;47.472;7.850;2023-02-22T03:07:37;96410.69;;;0.11;78.73
32761;BME280;19126;47.472;7.850;2023-02-22T03:10:17;96396.56;;;0.04;78.37
32761;BME280;19126;47.472;7.850;2023-02-22T03:12:50;96410.81;;;0.09;78.21
32761;BME280;19126;47.472;7.850;2023-02-22T03:15:25;96405.03;;;0.06;78.60
32761;BME280;19126;47.472;7.850;2023-02-22T03:18:02;96411.13;;;0.05;78.95
32761;BME280;19126;47.472;7.850;2023-02-22T03:20:39;96412.06;;;0.04;78.90
32761;BME280;19126;47.472;7.850;2023-02-22T03:23:10;96409.09;;;-0.03;79.34
32761;BME280;19126;47.472;7.850;2023-02-22T03:25:42;96412.63;;;-0.04;78.60
32761;BME280;19126;47.472;7.850;2023-02-22T03:28:12;96405.09;;;-0.07;78.53
32761;BME280;19126;47.472;7.850;2023-02-22T03:30:45;96414.50;;;-0.06;78.49
32761;BME280;19126;47.472;7.850;2023-02-22T03:33:16;96407.91;;;-0.10;78.36
32761;BME280;19126;47.472;7.850;2023-02-22T03:35:48;96394.28;;;-0.12;77.91
32761;BME280;19126;47.472;7.850;2023-02-22T03:38:21;96406.31;;;0.00;76.46
32761;BME280;19126;47.472;7.850;2023-02-22T03:40:51;96406.19;;;0.02;75.21
32761;BME280;19126;47.472;7.850;2023-02-22T03:43:22;96400.41;;;-0.02;75.30
32761;BME280;19126;47.472;7.850;2023-02-22T03:45:50;96403.69;;;-0.11;76.81
32761;BME280;19126;47.472;7.850;2023-02-22T03:48:21;96407.66;;;-0.19;77.13
32761;BME280;19126;47.472;7.850;2023-02-22T03:50:52;96406.72;;;-0.18;76.14
32761;BME280;19126;47.472;7.850;2023-02-22T03:53:20;96406.72;;;-0.18;75.08
32761;BME280;19126;47.472;7.850;2023-02-22T03:55:48;96398.97;;;-0.18;74.15
32761;BME280;19126;47.472;7.850;2023-02-22T03:58:17;96389.31;;;-0.27;74.13
32761;BME280;19126;47.472;7.850;2023-02-22T04:00:49;96404.13;;;-0.18;73.03
32761;BME280;19126;47.472;7.850;2023-02-22T04:03:18;96410.22;;;-0.19;73.21
32761;BME280;19126;47.472;7.850;2023-02-22T04:05:45;96396.50;;;-0.19;72.71
32761;BME280;19126;47.472;7.850;2023-02-22T04:08:14;96401.56;;;-0.18;72.50
32761;BME280;19126;47.472;7.850;2023-02-22T04:10:41;96406.94;;;-0.21;73.69
32761;BME280;19126;47.472;7.850;2023-02-22T04:13:08;96402.13;;;-0.25;73.41
32761;BME280;19126;47.472;7.850;2023-02-22T04:15:36;96382.63;;;-0.30;73.15
32761;BME280;19126;47.472;7.850;2023-02-22T04:18:03;96401.19;;;-0.24;72.86
32761;BME280;19126;47.472;7.850;2023-02-22T04:20:30;96403.78;;;-0.24;72.16
32761;BME280;19126;47.472;7.850;2023-02-22T04:22:59;96405.63;;;-0.26;71.87
32761;BME280;19126;47.472;7.850;2023-02-22T04:25:28;96397.69;;;-0.23;70.68
32761;BME280;19126;47.472;7.850;2023-02-22T04:27:57;96400.47;;;-0.26;71.62
32761;BME280;19126;47.472;7.850;2023-02-22T04:30:24;96396.34;;;-0.29;71.25
32761;BME280;19126;47.472;7.850;2023-02-22T04:32:52;96400.69;;;-0.30;71.53
32761;BME280;19126;47.472;7.850;2023-02-22T04:35:20;96399.28;;;-0.34;71.75
32761;BME280;19126;47.472;7.850;2023-02-22T04:37:47;96396.69;;;-0.34;71.06
32761;BME280;19126;47.472;7.850;2023-02-22T04:40:15;96398.22;;;-0.31;70.43
32761;BME280;19126;47.472;7.850;2023-02-22T04:42:43;96392.03;;;-0.28;69.28
32761;BME280;19126;47.472;7.850;2023-02-22T04:45:12;96397.91;;;-0.26;68.85
32761;BME280;19126;47.472;7.850;2023-02-22T04:47:41;96396.03;;;-0.24;68.47
32761;BME280;19126;47.472;7.850;2023-02-22T04:50:10;96397.69;;;-0.23;68.35
32761;BME280;19126;47.472;7.850;2023-02-22T04:52:37;96389.56;;;-0.19;67.71
32761;BME280;19126;47.472;7.850;2023-02-22T04:55:05;96391.13;;;-0.16;66.80
32761;BME280;19126;47.472;7.850;2023-02-22T04:57:34;96398.72;;;-0.26;67.72
32761;BME280;19126;47.472;7.850;2023-02-22T05:00:04;96388.59;;;-0.29;67.27
32761;BME280;19126;47.472;7.850;2023-02-22T05:02:35;96386.16;;;-0.31;66.84
32761;BME280;19126;47.472;7.850;2023-02-22T05:05:03;96387.56;;;-0.26;66.24
32761;BME280;19126;47.472;7.850;2023-02-22T05:07:31;96385.56;;;-0.23;65.50
32761;BME280;19126;47.472;7.850;2023-02-22T05:09:58;96378.06;;;-0.26;65.21
32761;BME280;19126;47.472;7.850;2023-02-22T05:12:27;96386.41;;;-0.22;65.21
32761;BME280;19126;47.472;7.850;2023-02-22T05:14:55;96384.75;;;-0.23;65.14
32761;BME280;19126;47.472;7.850;2023-02-22T05:17:24;96384.75;;;-0.23;65.49
32761;BME280;19126;47.472;7.850;2023-02-22T05:19:51;96391.31;;;-0.31;66.21
32761;BME280;19126;47.472;7.850;2023-02-22T05:22:18;96395.84;;;-0.34;66.89
32761;BME280;19126;47.472;7.850;2023-02-22T05:24:45;96390.91;;;-0.37;67.31
32761;BME280;19126;47.472;7.850;2023-02-22T05:27:12;96392.78;;;-0.39;66.94
32761;BME280;19126;47.472;7.850;2023-02-22T05:29:39;96392.47;;;-0.35;66.99
32761;BME280;19126;47.472;7.850;2023-02-22T05:32:06;96393.19;;;-0.33;65.79
32761;BME280;19126;47.472;7.850;2023-02-22T05:34:35;96394.00;;;-0.32;65.58
32761;BME280;19126;47.472;7.850;2023-02-22T05:37:02;96387.91;;;-0.31;65.26
32761;BME280;19126;47.472;7.850;2023-02-22T05:39:29;96386.16;;;-0.31;65.07
32761;BME280;19126;47.472;7.850;2023-02-22T05:41:56;96400.44;;;-0.38;66.14
32761;BME280;19126;47.472;7.850;2023-02-22T05:44:24;96389.41;;;-0.40;65.68
32761;BME280;19126;47.472;7.850;2023-02-22T05:46:51;96394.56;;;-0.40;65.83
32761;BME280;19126;47.472;7.850;2023-02-22T05:49:18;96389.50;;;-0.41;66.05
32761;BME280;19126;47.472;7.850;2023-02-22T05:51:46;96377.16;;;-0.49;65.76
32761;BME280;19126;47.472;7.850;2023-02-22T05:54:13;96384.34;;;-0.41;65.74
32761;BME280;19126;47.472;7.850;2023-02-22T05:56:40;96393.63;;;-0.39;64.87
32761;BME280;19126;47.472;7.850;2023-02-22T05:59:08;96390.00;;;-0.36;64.32
32761;BME280;19126;47.472;7.850;2023-02-22T06:01:35;96387.19;;;-0.33;63.22
32761;BME280;19126;47.472;7.850;2023-02-22T06:04:02;96383.78;;;-0.34;63.27
32761;BME280;19126;47.472;7.850;2023-02-22T06:06:32;96384.03;;;-0.37;63.96
32761;BME280;19126;47.472;7.850;2023-02-22T06:09:01;96384.03;;;-0.37;64.75
32761;BME280;19126;47.472;7.850;2023-02-22T06:11:31;96390.81;;;-0.36;64.51
32761;BME280;19126;47.472;7.850;2023-02-22T06:13:58;96388.25;;;-0.36;64.47
32761;BME280;19126;47.472;7.850;2023-02-22T06:16:25;96381.31;;;-0.35;63.63
32761;BME280;19126;47.472;7.850;2023-02-22T06:18:52;96388.97;;;-0.34;63.38
32761;BME280;19126;47.472;7.850;2023-02-22T06:21:19;96394.13;;;-0.34;63.68
32761;BME280;19126;47.472;7.850;2023-02-22T06:23:49;96395.28;;;-0.38;63.76
32761;BME280;19126;47.472;7.850;2023-02-22T06:26:18;96391.16;;;-0.40;63.87
32761;BME280;19126;47.472;7.850;2023-02-22T06:28:45;96390.44;;;-0.42;64.20
32761;BME280;19126;47.472;7.850;2023-02-22T06:31:12;96387.13;;;-0.45;64.07
32761;BME280;19126;47.472;7.850;2023-02-22T06:33:39;96404.06;;;-0.40;63.86
32761;BME280;19126;47.472;7.850;2023-02-22T06:36:08;96398.66;;;-0.37;64.13
32761;BME280;19126;47.472;7.850;2023-02-22T06:38:36;96406.09;;;-0.33;63.25
32761;BME280;19126;47.472;7.850;2023-02-22T06:41:03;96403.88;;;-0.26;62.40
32761;BME280;19126;47.472;7.850;2023-02-22T06:43:32;96404.84;;;-0.16;61.47
32761;BME280;19126;47.472;7.850;2023-02-22T06:46:02;96405.31;;;-0.10;60.19
32761;BME280;19126;47.472;7.850;2023-02-22T06:48:32;96404.63;;;-0.12;60.13
32761;BME280;19126;47.472;7.850;2023-02-22T06:50:59;96411.91;;;-0.06;59.31
32761;BME280;19126;47.472;7.850;2023-02-22T06:53:27;96406.53;;;-0.03;59.54
32761;BME280;19126;47.472;7.850;2023-02-22T06:55:54;96404.53;;;0.01;59.05
32761;BME280;19126;47.472;7.850;2023-02-22T06:58:22;96414.56;;;0.05;59.60
32761;BME280;19126;47.472;7.850;2023-02-22T07:00:50;96409.63;;;0.13;58.85
32761;BME280;19126;47.472;7.850;2023-02-22T07:03:18;96409.75;;;0.23;58.22
32761;BME280;19126;47.472;7.850;2023-02-22T07:05:46;96406.63;;;0.31;57.90
32761;BME280;19126;47.472;7.850;2023-02-22T07:08:13;96405.78;;;0.42;57.20
32761;BME280;19126;47.472;7.850;2023-02-22T07:10:40;96411.09;;;0.52;57.11
32761;BME280;19126;47.472;7.850;2023-02-22T07:13:07;96408.38;;;0.65;56.74
32761;BME280;19126;47.472;7.850;2023-02-22T07:15:38;96406.50;;;0.90;55.36
32761;BME280;19126;47.472;7.850;2023-02-22T07:18:06;96406.69;;;1.21;53.83
32761;BME280;19126;47.472;7.850;2023-02-22T07:20:34;96415.47;;;1.41;55.28
32761;BME280;19126;47.472;7.850;2023-02-22T07:23:01;96420.16;;;1.47;57.84
32761;BME280;19126;47.472;7.850;2023-02-22T07:25:28;96412.84;;;1.52;61.01
32761;BME280;19126;47.472;7.850;2023-02-22T07:27:55;96415.88;;;1.57;61.20
32761;BME280;19126;47.472;7.850;2023-02-22T07:30:23;96418.78;;;1.75;61.36
32761;BME280;19126;47.472;7.850;2023-02-22T07:32:53;96414.34;;;1.66;64.89
32761;BME280;19126;47.472;7.850;2023-02-22T07:35:24;96421.03;;;1.69;66.59
32761;BME280;19126;47.472;7.850;2023-02-22T07:37:52;96419.09;;;1.82;65.94
32761;BME280;19126;47.472;7.850;2023-02-22T07:40:24;96419.94;;;2.04;66.30
32761;BME280;19126;47.472;7.850;2023-02-22T07:42:53;96404.22;;;2.17;66.26
32761;BME280;19126;47.472;7.850;2023-02-22T07:45:22;96409.09;;;2.41;65.80
32761;BME280;19126;47.472;7.850;2023-02-22T07:47:52;96414.84;;;2.66;66.84
32761;BME280;19126;47.472;7.850;2023-02-22T07:50:20;96416.31;;;2.90;67.14
32761;BME280;19126;47.472;7.850;2023-02-22T07:52:51;96417.00;;;3.02;70.76
32761;BME280;19126;47.472;7.850;2023-02-22T07:55:20;96420.28;;;3.04;76.32
32761;BME280;19126;47.472;7.850;2023-02-22T07:57:58;96407.59;;;3.01;79.60
32761;BME280;19126;47.472;7.850;2023-02-22T08:00:29;96421.97;;;3.15;80.86
32761;BME280;19126;47.472;7.850;2023-02-22T08:02:57;96420.78;;;3.29;83.30
32761;BME280;19126;47.472;7.850;2023-02-22T08:05:25;96420.94;;;3.47;84.97
32761;BME280;19126;47.472;7.850;2023-02-22T08:07:55;96419.03;;;3.59;87.58
32761;BME280;19126;47.472;7.850;2023-02-22T08:10:23;96424.66;;;3.74;87.87
32761;BME280;19126;47.472;7.850;2023-02-22T08:12:51;96425.22;;;3.87;89.27
32761;BME280;19126;47.472;7.850;2023-02-22T08:15:20;96427.94;;;3.95;91.52
32761;BME280;19126;47.472;7.850;2023-02-22T08:17:48;96413.44;;;4.03;91.83
32761;BME280;19126;47.472;7.850;2023-02-22T08:20:15;96425.91;;;4.19;91.08
32761;BME280;19126;47.472;7.850;2023-02-22T08:22:42;96417.78;;;4.32;90.05
32761;BME280;19126;47.472;7.850;2023-02-22T08:25:11;96421.34;;;4.40;91.79
32761;BME280;19126;47.472;7.850;2023-02-22T08:27:40;96414.63;;;4.48;94.17
32761;BME280;19126;47.472;7.850;2023-02-22T08:30:11;96424.47;;;4.54;97.94
32761;BME280;19126;47.472;7.850;2023-02-22T08:32:39;96425.25;;;4.54;100.00
32761;BME280;19126;47.472;7.850;2023-02-22T08:35:08;96421.47;;;4.49;100.00
32761;BME280;19126;47.472;7.850;2023-02-22T08:37:35;96418.97;;;4.47;100.00
32761;BME280;19126;47.472;7.850;2023-02-22T08:40:03;96414.56;;;4.58;100.00
32761;BME280;19126;47.472;7.850;2023-02-22T08:42:32;96425.75;;;4.68;100.00
32761;BME280;19126;47.472;7.850;2023-02-22T08:44:59;96428.97;;;4.90;100.00
32761;BME280;19126;47.472;7.850;2023-02-22T08:47:26;96421.66;;;5.03;100.00
32761;BME280;19126;47.472;7.850;2023-02-22T08:49:53;96425.09;;;5.32;100.00
32761;BME280;19126;47.472;7.850;2023-02-22T08:52:20;96421.09;;;5.55;100.00
32761;BME280;19126;47.472;7.850;2023-02-22T08:54:50;96425.94;;;5.86;100.00
32761;BME280;19126;47.472;7.850;2023-02-22T08:57:17;96422.53;;;6.22;100.00
32761;BME280;19126;47.472;7.850;2023-02-22T08:59:46;96418.34;;;6.56;100.00
32761;BME280;19126;47.472;7.850;2023-02-22T09:02:13;96427.69;;;6.85;100.00
32761;BME280;19126;47.472;7.850;2023-02-22T09:04:41;96428.06;;;6.98;100.00
32761;BME280;19126;47.472;7.850;2023-02-22T09:07:11;96426.97;;;7.17;100.00
32761;BME280;19126;47.472;7.850;2023-02-22T09:09:41;96423.66;;;7.42;100.00
32761;BME280;19126;47.472;7.850;2023-02-22T09:12:11;96431.84;;;7.55;100.00
32761;BME280;19126;47.472;7.850;2023-02-22T09:14:39;96416.84;;;7.74;100.00
32761;BME280;19126;47.472;7.850;2023-02-22T09:17:09;96423.75;;;8.16;100.00
32761;BME280;19126;47.472;7.850;2023-02-22T09:19:37;96425.38;;;8.50;100.00
32761;BME280;19126;47.472;7.850;2023-02-22T09:22:05;96423.00;;;8.89;99.56
32761;BME280;19126;47.472;7.850;2023-02-22T09:24:32;96425.44;;;9.07;95.40
32761;BME280;19126;47.472;7.850;2023-02-22T09:26:59;96419.09;;;9.33;94.68
32761;BME280;19126;47.472;7.850;2023-02-22T09:29:29;96418.91;;;9.43;95.66
32761;BME280;19126;47.472;7.850;2023-02-22T09:31:56;96422.91;;;9.53;94.88
32761;BME280;19126;47.472;7.850;2023-02-22T09:34:25;96421.31;;;9.44;91.89
32761;BME280;19126;47.472;7.850;2023-02-22T09:36:55;96409.56;;;9.40;91.79
32761;BME280;19126;47.472;7.850;2023-02-22T09:39:23;96417.72;;;9.45;93.75
32761;BME280;19126;47.472;7.850;2023-02-22T09:41:55;96424.28;;;9.41;91.16
32761;BME280;19126;47.472;7.850;2023-02-22T09:44:30;96419.78;;;9.58;91.04
32761;BME280;19126;47.472;7.850;2023-02-22T09:47:01;96425.75;;;9.75;91.54
32761;BME280;19126;47.472;7.850;2023-02-22T09:49:31;96418.88;;;9.97;91.50
32761;BME280;19126;47.472;7.850;2023-02-22T09:52:04;96426.56;;;10.22;88.06
32761;BME280;19126;47.472;7.850;2023-02-22T09:54:37;96417.94;;;10.52;86.91
32761;BME280;19126;47.472;7.850;2023-02-22T09:57:06;96414.75;;;10.80;85.27
32761;BME280;19126;47.472;7.850;2023-02-22T10:02:22;96412.72;;;11.42;81.21
32761;BME280;19126;47.472;7.850;2023-02-22T10:05:00;96416.44;;;11.69;81.58
32761;BME280;19126;47.472;7.850;2023-02-22T10:07:32;96406.03;;;11.83;83.12
32761;BME280;19126;47.472;7.850;2023-02-22T10:10:01;96402.72;;;11.74;84.46
32761;BME280;19126;47.472;7.850;2023-02-22T10:12:37;96417.78;;;11.80;83.54
32761;BME280;19126;47.472;7.850;2023-02-22T10:15:33;96408.16;;;11.72;84.50
32761;BME280;19126;47.472;7.850;2023-02-22T10:18:18;96412.81;;;11.70;84.06
32761;BME280;19126;47.472;7.850;2023-02-22T10:20:52;96406.28;;;11.66;85.57
32761;BME280;19126;47.472;7.850;2023-02-22T10:23:25;96402.34;;;11.55;85.54
32761;BME280;19126;47.472;7.850;2023-02-22T10:25:58;96405.72;;;11.49;85.81
32761;BME280;19126;47.472;7.850;2023-02-22T10:28:30;96404.88;;;11.49;85.69
32761;BME280;19126;47.472;7.850;2023-02-22T10:31:03;96393.25;;;11.58;86.41
32761;BME280;19126;47.472;7.850;2023-02-22T10:33:35;96401.72;;;11.75;86.15
32761;BME280;19126;47.472;7.850;2023-02-22T10:36:09;96405.81;;;11.99;85.80
32761;BME280;19126;47.472;7.850;2023-02-22T10:38:51;96406.47;;;12.23;85.10
32761;BME280;19126;47.472;7.850;2023-02-22T10:41:25;96401.72;;;12.40;82.16
32761;BME280;19126;47.472;7.850;2023-02-22T10:43:53;96399.47;;;12.66;84.25
32761;BME280;19126;47.472;7.850;2023-02-22T10:46:22;96403.63;;;12.82;81.47
32761;BME280;19126;47.472;7.850;2023-02-22T10:48:51;96394.84;;;12.74;80.23
32761;BME280;19126;47.472;7.850;2023-02-22T10:51:21;96400.09;;;13.03;81.82
32761;BME280;19126;47.472;7.850;2023-02-22T10:54:05;96398.09;;;13.12;79.76
32761;BME280;19126;47.472;7.850;2023-02-22T10:56:45;96393.53;;;13.27;79.24
32761;BME280;19126;47.472;7.850;2023-02-22T10:59:26;96386.03;;;13.31;77.80
32761;BME280;19126;47.472;7.850;2023-02-22T11:01:53;96391.72;;;13.41;79.18
32761;BME280;19126;47.472;7.850;2023-02-22T11:04:21;96381.34;;;13.33;77.81
32761;BME280;19126;47.472;7.850;2023-02-22T11:07:08;96387.00;;;13.23;77.61
32761;BME280;19126;47.472;7.850;2023-02-22T11:09:49;96389.44;;;13.25;78.41
32761;BME280;19126;47.472;7.850;2023-02-22T11:12:18;96384.69;;;13.07;77.40
32761;BME280;19126;47.472;7.850;2023-02-22T11:14:46;96383.91;;;12.71;78.25
32761;BME280;19126;47.472;7.850;2023-02-22T11:17:21;96375.75;;;12.37;78.78
32761;BME280;19126;47.472;7.850;2023-02-22T11:19:50;96375.06;;;12.50;80.82
32761;BME280;19126;47.472;7.850;2023-02-22T11:22:24;96373.06;;;12.59;81.29
32761;BME280;19126;47.472;7.850;2023-02-22T11:24:55;96363.59;;;12.36;81.80
32761;BME280;19126;47.472;7.850;2023-02-22T11:27:34;96364.91;;;12.47;82.61
32761;BME280;19126;47.472;7.850;2023-02-22T11:30:18;96367.00;;;12.58;83.28
32761;BME280;19126;47.472;7.850;2023-02-22T11:32:48;96364.75;;;12.55;82.94
32761;BME280;19126;47.472;7.850;2023-02-22T11:35:25;96364.38;;;12.58;81.09
32761;BME280;19126;47.472;7.850;2023-02-22T11:38:09;96357.38;;;12.44;81.21
32761;BME280;19126;47.472;7.850;2023-02-22T11:40:37;96360.03;;;12.51;80.43
32761;BME280;19126;47.472;7.850;2023-02-22T11:43:06;96359.97;;;12.72;81.80
32761;BME280;19126;47.472;7.850;2023-02-22T11:45:36;96355.38;;;12.81;80.89
32761;BME280;19126;47.472;7.850;2023-02-22T11:48:06;96355.53;;;12.73;81.60
32761;BME280;19126;47.472;7.850;2023-02-22T11:50:50;96345.25;;;12.85;79.73
32761;BME280;19126;47.472;7.850;2023-02-22T11:53:28;96346.09;;;12.92;79.34
32761;BME280;19126;47.472;7.850;2023-02-22T11:56:09;96338.16;;;12.92;80.83
32761;BME280;19126;47.472;7.850;2023-02-22T11:58:45;96353.41;;;12.97;79.21
32761;BME280;19126;47.472;7.850;2023-02-22T12:01:19;96347.16;;;13.04;83.22
32761;BME280;19126;47.472;7.850;2023-02-22T12:04:26;96338.63;;;13.02;82.04
32761;BME280;19126;47.472;7.850;2023-02-22T12:07:09;96342.31;;;13.08;81.61
32761;BME280;19126;47.472;7.850;2023-02-22T12:09:43;96343.50;;;12.99;80.10
32761;BME280;19126;47.472;7.850;2023-02-22T12:12:17;96334.53;;;12.93;82.47
32761;BME280;19126;47.472;7.850;2023-02-22T12:14:50;96338.84;;;13.01;82.07
32761;BME280;19126;47.472;7.850;2023-02-22T12:17:35;96342.50;;;13.07;81.85
32761;BME280;19126;47.472;7.850;2023-02-22T12:20:11;96333.63;;;13.14;80.65
32761;BME280;19126;47.472;7.850;2023-02-22T12:22:51;96335.25;;;13.15;80.89
32761;BME280;19126;47.472;7.850;2023-02-22T12:25:24;96323.50;;;13.25;80.81
32761;BME280;19126;47.472;7.850;2023-02-22T12:27:55;96323.50;;;13.25;78.14
32761;BME280;19126;47.472;7.850;2023-02-22T12:30:25;96323.94;;;13.28;78.30
32761;BME280;19126;47.472;7.850;2023-02-22T12:32:54;96331.66;;;13.37;79.54
32761;BME280;19126;47.472;7.850;2023-02-22T12:35:24;96331.22;;;13.33;78.37
32761;BME280;19126;47.472;7.850;2023-02-22T12:37:58;96329.59;;;13.32;78.71
32761;BME280;19126;47.472;7.850;2023-02-22T12:40:33;96326.75;;;13.27;76.84
32761;BME280;19126;47.472;7.850;2023-02-22T12:43:05;96329.59;;;13.25;77.01
32761;BME280;19126;47.472;7.850;2023-02-22T12:45:35;96333.03;;;13.26;77.58
32761;BME280;19126;47.472;7.850;2023-02-22T12:48:17;96323.06;;;13.21;77.87
32761;BME280;19126;47.472;7.850;2023-02-22T12:50:52;96326.13;;;13.25;78.27
32761;BME280;19126;47.472;7.850;2023-02-22T12:53:27;96328.78;;;13.25;79.02
32761;BME280;19126;47.472;7.850;2023-02-22T12:55:59;96321.41;;;13.07;77.27
32761;BME280;19126;47.472;7.850;2023-02-22T12:58:31;96322.81;;;13.02;77.82
32761;BME280;19126;47.472;7.850;2023-02-22T13:01:04;96318.31;;;12.96;79.25
32761;BME280;19126;47.472;7.850;2023-02-22T13:03:34;96331.88;;;12.93;80.34
32761;BME280;19126;47.472;7.850;2023-02-22T13:06:20;96328.63;;;12.91;80.19
32761;BME280;19126;47.472;7.850;2023-02-22T13:09:00;96318.69;;;12.86;81.41
32761;BME280;19126;47.472;7.850;2023-02-22T13:11:35;96337.72;;;12.82;81.98
32761;BME280;19126;47.472;7.850;2023-02-22T13:14:25;96319.44;;;12.73;81.83
32761;BME280;19126;47.472;7.850;2023-02-22T13:17:00;96334.69;;;12.78;82.46
32761;BME280;19126;47.472;7.850;2023-02-22T13:19:39;96329.19;;;12.73;82.50
32761;BME280;19126;47.472;7.850;2023-02-22T13:22:14;96326.09;;;12.69;83.24
32761;BME280;19126;47.472;7.850;2023-02-22T13:24:53;96323.69;;;12.68;85.13
32761;BME280;19126;47.472;7.850;2023-02-22T13:27:26;96315.94;;;12.59;85.36
32761;BME280;19126;47.472;7.850;2023-02-22T13:29:56;96322.38;;;12.57;86.46
32761;BME280;19126;47.472;7.850;2023-02-22T13:32:47;96315.69;;;12.54;85.81
32761;BME280;19126;47.472;7.850;2023-02-22T13:35:26;96316.25;;;12.50;85.62